createdAt,value
2016-12-30T00:01:05.377Z,73.8
2016-12-30T00:02:15.303Z,73.61
2016-12-30T00:03:25.609Z,73.8
2016-12-30T00:04:35.448Z,73.8
2016-12-30T00:05:44.911Z,73.8
2016-12-30T00:06:55.219Z,73.9
2016-12-30T00:08:05.452Z,73.61
2016-12-30T00:09:15.740Z,73.43
2016-12-30T00:10:26.319Z,73.61
2016-12-30T00:11:36.648Z,73.43
2016-12-30T00:12:46.577Z,73.71
2016-12-30T00:13:56.836Z,73.86
2016-12-30T00:15:06.262Z,73.86
2016-12-30T00:16:16.111Z,73.58
2016-12-30T00:17:26.341Z,73.86
2016-12-30T00:18:36.198Z,73.96
2016-12-30T00:19:46.505Z,73.61
2016-12-30T00:20:56.346Z,73.8
2016-12-30T00:22:06.259Z,73.9
2016-12-30T00:23:16.612Z,73.77
2016-12-30T00:24:26.852Z,73.96
2016-12-30T00:25:37.089Z,73.96
2016-12-30T00:26:47.365Z,73.86
2016-12-30T00:27:57.641Z,73.86
2016-12-30T00:29:07.710Z,73.86
2016-12-30T00:30:17.941Z,73.68
2016-12-30T00:31:27.377Z,73.39
2016-12-30T00:32:36.858Z,73.86
2016-12-30T00:33:46.712Z,73.96
2016-12-30T00:34:56.550Z,73.96
2016-12-30T00:36:06.818Z,73.96
2016-12-30T00:37:17.067Z,74.24
2016-12-30T00:38:26.939Z,73.96
2016-12-30T00:39:37.208Z,73.96
2016-12-30T00:40:47.282Z,73.96
2016-12-30T00:41:57.123Z,74.15
2016-12-30T00:43:06.955Z,74.05
2016-12-30T00:44:17.204Z,74.24
2016-12-30T00:45:27.486Z,74.81
2016-12-30T00:46:37.775Z,74.9
2016-12-30T00:47:48.033Z,74.62
2016-12-30T00:48:57.976Z,74.9
2016-12-30T00:50:07.820Z,74.71
2016-12-30T00:51:17.675Z,75
2016-12-30T00:52:27.569Z,74.81
2016-12-30T00:53:37.430Z,74.81
2016-12-30T00:54:47.680Z,74.43
2016-12-30T00:55:57.515Z,74.62
2016-12-30T00:57:07.354Z,74.52
2016-12-30T00:58:17.707Z,74.9
2016-12-30T00:59:27.972Z,74.81
2016-12-30T01:00:38.254Z,74.81
2016-12-30T01:01:48.146Z,74.81
2016-12-30T01:02:57.624Z,74.62
2016-12-30T01:04:07.965Z,74.71
2016-12-30T01:05:17.838Z,74.52
2016-12-30T01:06:27.699Z,74.33
2016-12-30T01:07:37.949Z,74.71
2016-12-30T01:08:48.214Z,74.62
2016-12-30T01:09:58.061Z,74.62
2016-12-30T01:11:07.908Z,74.62
2016-12-30T01:12:17.796Z,74.33
2016-12-30T01:13:28.053Z,74.52
2016-12-30T01:14:38.298Z,74.62
2016-12-30T01:15:48.527Z,74.81
2016-12-30T01:16:58.114Z,75.09
2016-12-30T01:18:08.056Z,74.9
2016-12-30T01:19:18.374Z,74.71
2016-12-30T01:20:28.605Z,75
2016-12-30T01:21:38.933Z,74.9
2016-12-30T01:22:48.761Z,74.9
2016-12-30T01:23:58.634Z,74.71
2016-12-30T01:25:08.508Z,74.52
2016-12-30T01:26:17.933Z,74.33
2016-12-30T01:27:27.768Z,74.33
2016-12-30T01:28:37.686Z,74.71
2016-12-30T01:29:47.933Z,74.43
2016-12-30T01:30:57.440Z,74.9
2016-12-30T01:32:07.782Z,74.52
2016-12-30T01:33:18.032Z,74.71
2016-12-30T01:34:28.326Z,74.9
2016-12-30T01:35:37.769Z,74.9
2016-12-30T01:36:47.635Z,74.9
2016-12-30T01:37:57.881Z,74.62
2016-12-30T01:39:08.240Z,74.52
2016-12-30T01:40:17.785Z,74.71
2016-12-30T01:41:28.028Z,74.43
2016-12-30T01:42:38.248Z,74.81
2016-12-30T01:43:48.548Z,74.62
2016-12-30T01:44:58.808Z,74.43
2016-12-30T01:46:08.277Z,74.52
2016-12-30T01:47:18.585Z,74.52
2016-12-30T01:48:28.430Z,74.71
2016-12-30T01:49:37.496Z,74.62
2016-12-30T01:50:47.335Z,74.52
2016-12-30T01:51:57.593Z,74.33
2016-12-30T01:53:07.426Z,74.52
2016-12-30T01:54:17.699Z,74.33
2016-12-30T01:55:27.960Z,74.62
2016-12-30T01:56:38.223Z,74.81
2016-12-30T01:57:48.152Z,74.9
2016-12-30T01:58:58.017Z,74.81
2016-12-30T02:00:08.295Z,74.9
2016-12-30T02:01:18.244Z,74.62
2016-12-30T02:02:28.483Z,74.62
2016-12-30T02:03:38.317Z,74.52
2016-12-30T02:04:48.260Z,75
2016-12-30T02:05:58.100Z,74.43
2016-12-30T02:07:07.955Z,74.81
2016-12-30T02:08:17.390Z,74.71
2016-12-30T02:09:27.640Z,74.62
2016-12-30T02:10:37.536Z,74.43
2016-12-30T02:11:47.413Z,74.71
2016-12-30T02:12:57.315Z,74.71
2016-12-30T02:14:07.228Z,74.81
2016-12-30T02:15:17.253Z,74.52
2016-12-30T02:16:27.206Z,74.33
2016-12-30T02:17:37.438Z,74.81
2016-12-30T02:18:47.262Z,74.52
2016-12-30T02:19:56.728Z,74.62
2016-12-30T02:21:06.970Z,74.52
2016-12-30T02:22:16.848Z,74.71
2016-12-30T02:23:26.698Z,74.71
2016-12-30T02:24:37.048Z,74.71
2016-12-30T02:25:47.342Z,75.09
2016-12-30T02:26:57.205Z,75.15
2016-12-30T02:28:07.179Z,75.43
2016-12-30T02:29:17.453Z,75.24
2016-12-30T02:30:27.761Z,75.76
2016-12-30T02:31:38.032Z,75.76
2016-12-30T02:32:47.891Z,75.66
2016-12-30T02:33:58.161Z,75.57
2016-12-30T02:35:08.287Z,75.47
2016-12-30T02:36:18.526Z,75.47
2016-12-30T02:37:28.366Z,75.57
2016-12-30T02:38:38.279Z,75.57
2016-12-30T02:39:48.106Z,75.47
2016-12-30T02:40:58.369Z,75.62
2016-12-30T02:42:08.624Z,75.66
2016-12-30T02:43:18.052Z,75.47
2016-12-30T02:44:27.577Z,75.72
2016-12-30T02:45:37.418Z,75.53
2016-12-30T02:46:47.652Z,75.62
2016-12-30T02:47:57.085Z,75.76
2016-12-30T02:49:06.947Z,75.53
2016-12-30T02:50:17.245Z,75.47
2016-12-30T02:51:27.540Z,75.62
2016-12-30T02:52:37.373Z,75.76
2016-12-30T02:53:46.804Z,75.66
2016-12-30T02:54:57.237Z,75.85
2016-12-30T02:56:07.135Z,75.76
2016-12-30T02:57:17.459Z,75.47
2016-12-30T02:58:27.734Z,75.47
2016-12-30T02:59:37.959Z,75.34
2016-12-30T03:00:47.786Z,75.47
2016-12-30T03:01:58.041Z,75.24
2016-12-30T03:03:08.330Z,75.57
2016-12-30T03:04:18.552Z,75.43
2016-12-30T03:05:28.917Z,75.43
2016-12-30T03:06:38.365Z,75.43
2016-12-30T03:07:48.216Z,75.34
2016-12-30T03:08:58.448Z,75.24
2016-12-30T03:10:08.315Z,75.62
2016-12-30T03:11:17.748Z,75.72
2016-12-30T03:12:27.590Z,75.72
2016-12-30T03:13:37.945Z,75.91
2016-12-30T03:14:47.818Z,75.91
2016-12-30T03:15:58.047Z,76
2016-12-30T03:17:08.293Z,75.91
2016-12-30T03:18:17.768Z,75.91
2016-12-30T03:19:28.044Z,75.81
2016-12-30T03:20:38.276Z,75.53
2016-12-30T03:21:48.146Z,75.72
2016-12-30T03:22:57.565Z,75.62
2016-12-30T03:24:07.005Z,76.1
2016-12-30T03:25:16.445Z,75.91
2016-12-30T03:26:25.873Z,76.38
2016-12-30T03:27:36.116Z,76.57
2016-12-30T03:28:45.995Z,76.76
2016-12-30T03:29:55.444Z,76.48
2016-12-30T03:31:05.414Z,76.48
2016-12-30T03:32:15.309Z,76.38
2016-12-30T03:33:25.171Z,76.48
2016-12-30T03:34:35.111Z,76.48
2016-12-30T03:35:45.380Z,76.67
2016-12-30T03:36:55.647Z,76.48
2016-12-30T03:38:05.959Z,76.29
2016-12-30T03:39:16.227Z,76.48
2016-12-30T03:40:25.670Z,76.48
2016-12-30T03:41:35.945Z,75.91
2016-12-30T03:42:45.788Z,76.57
2016-12-30T03:43:56.054Z,76.1
2016-12-30T03:45:06.369Z,76.19
2016-12-30T03:46:16.711Z,76.1
2016-12-30T03:47:26.573Z,76
2016-12-30T03:48:36.851Z,76.1
2016-12-30T03:49:47.140Z,76.19
2016-12-30T03:50:57.418Z,76.19
2016-12-30T03:52:07.708Z,75.72
2016-12-30T03:53:17.566Z,75.62
2016-12-30T03:54:27.853Z,75.43
2016-12-30T03:55:37.377Z,75.43
2016-12-30T03:56:47.621Z,75.53
2016-12-30T03:57:57.919Z,75.62
2016-12-30T03:59:08.185Z,75.62
2016-12-30T04:00:18.009Z,75.81
2016-12-30T04:01:27.834Z,75.15
2016-12-30T04:02:37.724Z,75.43
2016-12-30T04:03:47.610Z,75.43
2016-12-30T04:04:57.888Z,75.24
2016-12-30T04:06:08.155Z,75.62
2016-12-30T04:07:17.987Z,75.24
2016-12-30T04:08:27.419Z,75.53
2016-12-30T04:09:37.260Z,75.15
2016-12-30T04:10:47.088Z,75.62
2016-12-30T04:11:56.931Z,75.62
2016-12-30T04:13:06.374Z,75.72
2016-12-30T04:14:16.601Z,75.72
2016-12-30T04:15:26.490Z,75.72
2016-12-30T04:16:36.730Z,75.43
2016-12-30T04:17:46.608Z,75.91
2016-12-30T04:18:56.432Z,75.91
2016-12-30T04:20:06.731Z,76.1
2016-12-30T04:21:17.096Z,75.72
2016-12-30T04:22:27.366Z,75.43
2016-12-30T04:23:36.868Z,75.43
2016-12-30T04:24:47.167Z,75.62
2016-12-30T04:25:57.039Z,75.72
2016-12-30T04:27:07.275Z,75.34
2016-12-30T04:28:17.529Z,75.53
2016-12-30T04:29:27.787Z,76
2016-12-30T04:30:36.836Z,75.53
2016-12-30T04:31:47.104Z,75.43
2016-12-30T04:32:57.368Z,75.81
2016-12-30T04:34:07.675Z,75.81
2016-12-30T04:35:17.968Z,75.72
2016-12-30T04:36:28.234Z,75.53
2016-12-30T04:37:37.672Z,75.62
2016-12-30T04:38:47.898Z,75.72
2016-12-30T04:39:58.423Z,75.72
2016-12-30T04:41:08.364Z,76
2016-12-30T04:42:18.612Z,76.1
2016-12-30T04:43:28.538Z,76.29
2016-12-30T04:44:38.401Z,75.43
2016-12-30T04:45:48.260Z,75.62
2016-12-30T04:46:58.592Z,75.34
2016-12-30T04:48:08.407Z,75.05
2016-12-30T04:49:18.641Z,75.05
2016-12-30T04:50:28.981Z,75.05
2016-12-30T04:51:38.817Z,75.05
2016-12-30T04:52:48.659Z,75.05
2016-12-30T04:53:58.907Z,75.05
2016-12-30T04:55:09.149Z,75.15
2016-12-30T04:56:19.090Z,74.96
2016-12-30T04:57:29.318Z,74.87
2016-12-30T04:58:39.198Z,74.87
2016-12-30T04:59:49.043Z,74.96
2016-12-30T05:00:58.871Z,75.34
2016-12-30T05:02:08.353Z,75.53
2016-12-30T05:03:18.702Z,75.53
2016-12-30T05:04:28.943Z,75.34
2016-12-30T05:05:38.440Z,75.43
2016-12-30T05:06:48.279Z,75.72
2016-12-30T05:07:58.532Z,75.62
2016-12-30T05:09:08.802Z,75.81
2016-12-30T05:10:18.696Z,75.53
2016-12-30T05:11:28.161Z,75.43
2016-12-30T05:12:38.394Z,75.91
2016-12-30T05:13:48.635Z,76
2016-12-30T05:14:58.895Z,76.1
2016-12-30T05:16:09.148Z,75.91
2016-12-30T05:17:19.400Z,75.62
2016-12-30T05:18:29.247Z,75.81
2016-12-30T05:19:39.652Z,75.43
2016-12-30T05:20:49.487Z,75.62
2016-12-30T05:21:59.751Z,75.34
2016-12-30T05:23:09.616Z,75.43
2016-12-30T05:24:19.851Z,75.53
2016-12-30T05:25:30.112Z,74.87
2016-12-30T05:26:39.960Z,74.4
2016-12-30T05:27:50.207Z,74.21
2016-12-30T05:29:00.345Z,74.02
2016-12-30T05:30:10.254Z,74.21
2016-12-30T05:31:20.523Z,74.02
2016-12-30T05:32:30.346Z,74.58
2016-12-30T05:33:40.257Z,74.68
2016-12-30T05:34:49.731Z,74.58
2016-12-30T05:35:59.954Z,74.49
2016-12-30T05:37:10.213Z,74.3
2016-12-30T05:38:19.701Z,74.49
2016-12-30T05:39:28.716Z,74.49
2016-12-30T05:40:38.768Z,74.68
2016-12-30T05:41:48.653Z,74.68
2016-12-30T05:42:58.896Z,74.58
2016-12-30T05:44:09.141Z,74.58
2016-12-30T05:45:19.447Z,74.4
2016-12-30T05:46:29.364Z,74.4
2016-12-30T05:47:38.836Z,74.49
2016-12-30T05:48:49.121Z,74.68
2016-12-30T05:49:58.970Z,74.58
2016-12-30T05:51:09.249Z,75.05
2016-12-30T05:52:18.700Z,74.83
2016-12-30T05:53:28.949Z,75.31
2016-12-30T05:54:39.217Z,75.02
2016-12-30T05:55:48.683Z,75.49
2016-12-30T05:56:59.103Z,75.78
2016-12-30T05:58:09.542Z,76.15
2016-12-30T05:59:19.388Z,76.53
2016-12-30T06:00:29.719Z,76.53
2016-12-30T06:01:39.145Z,76.44
2016-12-30T06:02:49.015Z,76.44
2016-12-30T06:03:58.477Z,76.34
2016-12-30T06:05:08.699Z,76.06
2016-12-30T06:06:18.952Z,76.63
2016-12-30T06:07:28.891Z,76.15
2016-12-30T06:08:39.179Z,76.25
2016-12-30T06:09:48.598Z,76.44
2016-12-30T06:10:58.854Z,76.34
2016-12-30T06:12:09.148Z,76.72
2016-12-30T06:13:18.983Z,76.34
2016-12-30T06:14:29.304Z,76.67
2016-12-30T06:15:38.751Z,76
2016-12-30T06:16:49.047Z,76.19
2016-12-30T06:17:59.305Z,75.91
2016-12-30T06:19:09.568Z,75.53
2016-12-30T06:20:19.413Z,75.53
2016-12-30T06:21:29.262Z,75.43
2016-12-30T06:22:38.313Z,76
2016-12-30T06:23:48.154Z,76.1
2016-12-30T06:24:57.976Z,76
2016-12-30T06:26:07.820Z,75.81
2016-12-30T06:27:17.662Z,75.43
2016-12-30T06:28:27.510Z,75.72
2016-12-30T06:29:37.377Z,75.43
2016-12-30T06:30:47.193Z,75.43
2016-12-30T06:31:57.443Z,75.81
2016-12-30T06:33:07.714Z,75.81
2016-12-30T06:34:17.626Z,75.72
2016-12-30T06:35:27.465Z,75.62
2016-12-30T06:36:37.305Z,75.62
2016-12-30T06:37:46.739Z,75.91
2016-12-30T06:38:56.649Z,76.15
2016-12-30T06:40:06.906Z,76.1
2016-12-30T06:41:16.474Z,76.1
2016-12-30T06:42:25.919Z,75.81
2016-12-30T06:43:36.278Z,75.87
2016-12-30T06:44:46.548Z,75.91
2016-12-30T06:45:56.526Z,75.87
2016-12-30T06:47:05.947Z,75.96
2016-12-30T06:48:16.237Z,75.31
2016-12-30T06:49:26.466Z,75.78
2016-12-30T06:50:36.723Z,75.4
2016-12-30T06:51:46.991Z,75.87
2016-12-30T06:52:56.421Z,75.96
2016-12-30T06:54:06.737Z,75.96
2016-12-30T06:55:17.192Z,76.06
2016-12-30T06:56:27.653Z,76.25
2016-12-30T06:57:37.523Z,76.25
2016-12-30T06:58:47.350Z,75.91
2016-12-30T06:59:56.768Z,75.96
2016-12-30T07:01:06.662Z,75.49
2016-12-30T07:02:16.572Z,75.96
2016-12-30T07:03:26.832Z,76.06
2016-12-30T07:04:37.123Z,76.06
2016-12-30T07:05:47.386Z,76.25
2016-12-30T07:06:57.221Z,75.87
2016-12-30T07:08:07.098Z,76.15
2016-12-30T07:09:16.932Z,75.96
2016-12-30T07:10:27.230Z,75.96
2016-12-30T07:11:37.532Z,76.34
2016-12-30T07:12:47.767Z,75.87
2016-12-30T07:13:58.028Z,76.25
2016-12-30T07:15:08.337Z,76.25
2016-12-30T07:16:18.557Z,75.87
2016-12-30T07:17:27.993Z,76.25
2016-12-30T07:18:37.837Z,76.06
2016-12-30T07:19:47.703Z,76.06
2016-12-30T07:20:58.074Z,75.31
2016-12-30T07:22:07.545Z,75.4
2016-12-30T07:23:17.882Z,75.49
2016-12-30T07:24:27.759Z,75.68
2016-12-30T07:25:38.037Z,75.68
2016-12-30T07:26:48.266Z,75.49
2016-12-30T07:27:58.095Z,75.68
2016-12-30T07:29:07.928Z,75.68
2016-12-30T07:30:18.179Z,75.78
2016-12-30T07:31:27.622Z,75.4
2016-12-30T07:32:37.449Z,75.43
2016-12-30T07:33:46.884Z,75.53
2016-12-30T07:34:56.329Z,75.53
2016-12-30T07:36:06.158Z,75.4
2016-12-30T07:37:15.677Z,75.31
2016-12-30T07:38:25.908Z,75.68
2016-12-30T07:39:35.750Z,75.49
2016-12-30T07:40:45.993Z,75.31
2016-12-30T07:41:55.811Z,75.49
2016-12-30T07:43:05.655Z,75.59
2016-12-30T07:44:14.701Z,75.59
2016-12-30T07:45:23.750Z,75.02
2016-12-30T07:46:32.802Z,75.12
2016-12-30T07:47:43.035Z,75.72
2016-12-30T07:48:53.269Z,75.43
2016-12-30T07:50:03.510Z,75.43
2016-12-30T07:51:12.953Z,75.72
2016-12-30T07:52:22.817Z,75.34
2016-12-30T07:53:33.068Z,75.43
2016-12-30T07:54:43.340Z,75.53
2016-12-30T07:55:53.191Z,74.87
2016-12-30T07:57:03.071Z,74.58
2016-12-30T07:58:12.107Z,74.4
2016-12-30T07:59:22.015Z,74.58
2016-12-30T08:00:32.259Z,74.58
2016-12-30T08:01:42.116Z,74.49
2016-12-30T08:02:52.396Z,74.4
2016-12-30T08:04:02.711Z,74.49
2016-12-30T08:05:12.156Z,74.58
2016-12-30T08:06:21.623Z,74.4
2016-12-30T08:07:31.510Z,74.87
2016-12-30T08:08:41.747Z,74.4
2016-12-30T08:09:51.658Z,74.68
2016-12-30T08:11:02.030Z,74.49
2016-12-30T08:12:12.366Z,74.4
2016-12-30T08:13:22.617Z,74.68
2016-12-30T08:14:32.492Z,74.21
2016-12-30T08:15:42.330Z,74.3
2016-12-30T08:16:52.691Z,74.02
2016-12-30T08:18:02.967Z,74.68
2016-12-30T08:19:13.294Z,74.4
2016-12-30T08:20:23.545Z,74.49
2016-12-30T08:21:33.380Z,74.58
2016-12-30T08:22:42.945Z,74.68
2016-12-30T08:23:53.228Z,74.68
2016-12-30T08:25:03.087Z,74.87
2016-12-30T08:26:12.926Z,75.15
2016-12-30T08:27:22.752Z,74.96
2016-12-30T08:28:32.999Z,74.96
2016-12-30T08:29:43.234Z,74.68
2016-12-30T08:30:52.689Z,74.3
2016-12-30T08:32:02.925Z,74.4
2016-12-30T08:33:12.852Z,74.21
2016-12-30T08:34:23.072Z,74.3
2016-12-30T08:35:32.559Z,74.11
2016-12-30T08:36:42.479Z,74.02
2016-12-30T08:37:52.314Z,73.83
2016-12-30T08:39:02.208Z,73.92
2016-12-30T08:40:12.449Z,74.11
2016-12-30T08:41:22.700Z,73.92
2016-12-30T08:42:32.611Z,73.92
2016-12-30T08:43:42.861Z,74.02
2016-12-30T08:44:53.242Z,74.02
2016-12-30T08:46:03.098Z,74.11
2016-12-30T08:47:13.382Z,74.58
2016-12-30T08:48:23.356Z,74.4
2016-12-30T08:49:33.601Z,74.4
2016-12-30T08:50:43.455Z,74.87
2016-12-30T08:51:53.318Z,74.77
2016-12-30T08:53:03.184Z,74.4
2016-12-30T08:54:13.426Z,74.58
2016-12-30T08:55:23.667Z,74.58
2016-12-30T08:56:33.108Z,74.77
2016-12-30T08:57:42.937Z,74.21
2016-12-30T08:58:52.773Z,74.02
2016-12-30T09:00:02.766Z,73.92
2016-12-30T09:01:11.455Z,73.92
2016-12-30T09:02:21.377Z,74.21
2016-12-30T09:03:31.321Z,74.11
2016-12-30T09:04:41.713Z,74.4
2016-12-30T09:05:51.998Z,74.4
2016-12-30T09:07:01.986Z,74.02
2016-12-30T09:08:11.439Z,74.3
2016-12-30T09:09:21.299Z,74.3
2016-12-30T09:10:31.133Z,73.92
2016-12-30T09:11:40.335Z,74.02
2016-12-30T09:12:50.713Z,74.4
2016-12-30T09:14:00.168Z,74.3
2016-12-30T09:15:10.398Z,74.11
2016-12-30T09:16:20.249Z,73.92
2016-12-30T09:17:30.759Z,74.02
2016-12-30T09:18:41.022Z,73.83
2016-12-30T09:19:51.587Z,74.02
2016-12-30T09:21:01.538Z,74.15
2016-12-30T09:22:11.381Z,73.45
2016-12-30T09:23:21.245Z,73.54
2016-12-30T09:24:31.211Z,73.92
2016-12-30T09:25:41.504Z,74.02
2016-12-30T09:26:51.341Z,74.02
2016-12-30T09:28:01.211Z,73.92
2016-12-30T09:29:11.049Z,74.21
2016-12-30T09:30:21.327Z,74.21
2016-12-30T09:31:31.174Z,74.21
2016-12-30T09:32:41.098Z,73.92
2016-12-30T09:33:51.005Z,74.3
2016-12-30T09:35:01.257Z,74.3
2016-12-30T09:36:11.136Z,74.3
2016-12-30T09:37:20.961Z,74.43
2016-12-30T09:38:31.213Z,74.81
2016-12-30T09:39:41.047Z,74.81
2016-12-30T09:40:51.277Z,74.52
2016-12-30T09:42:01.513Z,74.52
2016-12-30T09:43:11.764Z,74.52
2016-12-30T09:44:20.834Z,74.62
2016-12-30T09:45:31.063Z,74.52
2016-12-30T09:46:41.336Z,74.52
2016-12-30T09:47:51.685Z,74.33
2016-12-30T09:49:01.959Z,74.62
2016-12-30T09:50:12.332Z,74.43
2016-12-30T09:51:22.187Z,73.96
2016-12-30T09:52:32.098Z,74.15
2016-12-30T09:53:42.006Z,74.15
2016-12-30T09:54:51.907Z,74.15
2016-12-30T09:56:01.812Z,74.43
2016-12-30T09:57:11.728Z,74.18
2016-12-30T09:58:21.564Z,74.09
2016-12-30T09:59:31.394Z,73.8
2016-12-30T10:00:41.634Z,73.9
2016-12-30T10:01:51.903Z,73.37
2016-12-30T10:03:02.205Z,72.04
2016-12-30T10:04:12.450Z,71.41
2016-12-30T10:05:22.278Z,70.78
2016-12-30T10:06:32.156Z,70.06
2016-12-30T10:07:42.011Z,69.24
2016-12-30T10:08:52.423Z,68.52
2016-12-30T10:10:02.828Z,67.03
2016-12-30T10:11:13.222Z,66.3
2016-12-30T10:12:23.459Z,65.19
2016-12-30T10:13:33.690Z,62.91
2016-12-30T10:14:43.543Z,61.13
2016-12-30T10:15:53.844Z,60.3
2016-12-30T10:17:04.182Z,59.09
2016-12-30T10:18:14.042Z,57.95
2016-12-30T10:19:23.919Z,56.55
2016-12-30T10:20:34.197Z,54.64
2016-12-30T10:21:44.067Z,53.81
2016-12-30T10:22:54.515Z,52.76
2016-12-30T10:24:04.472Z,52.5
2016-12-30T10:25:14.758Z,52.4
2016-12-30T10:26:23.939Z,50.9
2016-12-30T10:27:33.430Z,50.04
2016-12-30T10:28:43.669Z,49.88
2016-12-30T10:29:53.950Z,48.73
2016-12-30T10:31:03.469Z,48.09
2016-12-30T10:32:13.722Z,47.52
2016-12-30T10:33:24.009Z,46.84
2016-12-30T10:34:33.923Z,45.62
2016-12-30T10:35:43.836Z,45.81
2016-12-30T10:36:54.230Z,44.95
2016-12-30T10:38:04.068Z,44.31
2016-12-30T10:39:14.347Z,43.63
2016-12-30T10:40:24.652Z,42.68
2016-12-30T10:41:34.538Z,41.65
2016-12-30T10:42:43.632Z,41.44
2016-12-30T10:43:53.562Z,41.07
2016-12-30T10:45:03.811Z,41.07
2016-12-30T10:46:13.251Z,41.27
2016-12-30T10:47:23.102Z,40.48
2016-12-30T10:48:33.440Z,40.31
2016-12-30T10:49:43.343Z,39.25
2016-12-30T10:50:53.243Z,39.23
2016-12-30T10:52:03.512Z,38.95
2016-12-30T10:53:13.843Z,39.14
2016-12-30T10:54:23.758Z,39.33
2016-12-30T10:55:33.661Z,39.43
2016-12-30T10:56:43.107Z,38.3
2016-12-30T10:57:53.107Z,38.1
2016-12-30T10:59:02.970Z,38.01
2016-12-30T11:00:12.817Z,37.53
2016-12-30T11:01:23.104Z,37.63
2016-12-30T11:02:32.960Z,37.24
2016-12-30T11:03:42.677Z,37.07
2016-12-30T11:04:52.961Z,36.67
2016-12-30T11:06:02.812Z,36.11
2016-12-30T11:07:12.667Z,36.11
2016-12-30T11:08:22.509Z,36.11
2016-12-30T11:09:32.790Z,36
2016-12-30T11:10:42.787Z,36.1
2016-12-30T11:11:53.203Z,36.38
2016-12-30T11:13:02.653Z,36.4
2016-12-30T11:14:12.546Z,36.67
2016-12-30T11:15:22.423Z,36.49
2016-12-30T11:16:32.290Z,36.21
2016-12-30T11:17:42.708Z,36.1
2016-12-30T11:18:53.012Z,35.71
2016-12-30T11:20:03.264Z,35.9
2016-12-30T11:21:13.229Z,36.1
2016-12-30T11:22:23.113Z,36.19
2016-12-30T11:23:33.013Z,36.29
2016-12-30T11:24:42.886Z,36
2016-12-30T11:25:53.162Z,35.71
2016-12-30T11:27:03.016Z,36.19
2016-12-30T11:28:13.399Z,36.19
2016-12-30T11:29:23.671Z,35.9
2016-12-30T11:30:33.920Z,36.17
2016-12-30T11:31:44.217Z,36.15
2016-12-30T11:32:54.587Z,36.44
2016-12-30T11:34:04.468Z,36.9
2016-12-30T11:35:14.765Z,37.28
2016-12-30T11:36:24.639Z,37.95
2016-12-30T11:37:34.972Z,37.66
2016-12-30T11:38:45.324Z,38.03
2016-12-30T11:39:55.195Z,37.84
2016-12-30T11:41:05.506Z,38.22
2016-12-30T11:42:15.363Z,37.84
2016-12-30T11:43:25.681Z,38.22
2016-12-30T11:44:34.815Z,38.89
2016-12-30T11:45:44.742Z,39.06
2016-12-30T11:46:54.577Z,39.15
2016-12-30T11:48:04.833Z,39.06
2016-12-30T11:49:14.885Z,39.54
2016-12-30T11:50:25.125Z,39.54
2016-12-30T11:51:35.392Z,39.64
2016-12-30T11:52:44.828Z,39.64
2016-12-30T11:53:54.724Z,40.11
2016-12-30T11:55:04.986Z,40.49
2016-12-30T11:56:15.274Z,40.57
2016-12-30T11:57:25.106Z,40.37
2016-12-30T11:58:34.958Z,40.37
2016-12-30T11:59:44.819Z,41.12
2016-12-30T12:00:55.153Z,41.12
2016-12-30T12:02:04.699Z,41.48
2016-12-30T12:03:14.557Z,42.15
2016-12-30T12:04:24.861Z,42.34
2016-12-30T12:05:35.152Z,42.6
2016-12-30T12:06:45.429Z,42.89
2016-12-30T12:07:55.694Z,43.08
2016-12-30T12:09:05.967Z,43.44
2016-12-30T12:10:16.239Z,43.44
2016-12-30T12:11:26.145Z,43.91
2016-12-30T12:12:36.429Z,44.18
2016-12-30T12:13:46.353Z,44.85
2016-12-30T12:14:56.665Z,45.32
2016-12-30T12:16:06.909Z,45.49
2016-12-30T12:17:16.753Z,46.25
2016-12-30T12:18:26.729Z,46.83
2016-12-30T12:19:37.015Z,47.37
2016-12-30T12:20:47.253Z,48.03
2016-12-30T12:21:57.553Z,47.85
2016-12-30T12:23:06.992Z,48.51
2016-12-30T12:24:17.253Z,48.61
2016-12-30T12:25:26.751Z,48.71
2016-12-30T12:26:37.040Z,49.27
2016-12-30T12:27:46.940Z,48.87
2016-12-30T12:28:57.241Z,49.44
2016-12-30T12:30:06.675Z,49.54
2016-12-30T12:31:17.030Z,49.91
2016-12-30T12:32:27.296Z,49.82
2016-12-30T12:33:37.251Z,50.01
2016-12-30T12:34:47.616Z,50.2
2016-12-30T12:35:57.452Z,50.48
2016-12-30T12:37:07.379Z,50.39
2016-12-30T12:38:17.706Z,50.2
2016-12-30T12:39:27.627Z,50.48
2016-12-30T12:40:38.022Z,50.58
2016-12-30T12:41:47.882Z,51.06
2016-12-30T12:42:57.746Z,51.25
2016-12-30T12:44:07.579Z,51.72
2016-12-30T12:45:17.456Z,51.53
2016-12-30T12:46:27.429Z,51.91
2016-12-30T12:47:37.740Z,51.91
2016-12-30T12:48:48.101Z,51.72
2016-12-30T12:49:58.361Z,52.2
2016-12-30T12:51:08.369Z,52.29
2016-12-30T12:52:18.694Z,52.29
2016-12-30T12:53:28.581Z,52.58
2016-12-30T12:54:38.440Z,52.96
2016-12-30T12:55:48.291Z,52.93
2016-12-30T12:56:58.649Z,53.03
2016-12-30T12:58:08.486Z,52.84
2016-12-30T12:59:18.751Z,52.84
2016-12-30T13:00:29.052Z,53.69
2016-12-30T13:01:39.309Z,53.59
2016-12-30T13:02:48.780Z,53.97
2016-12-30T13:03:59.020Z,53.59
2016-12-30T13:05:09.279Z,53.88
2016-12-30T13:06:19.539Z,53.59
2016-12-30T13:07:29.407Z,53.97
2016-12-30T13:08:39.257Z,53.88
2016-12-30T13:09:48.745Z,53.69
2016-12-30T13:10:58.187Z,54.17
2016-12-30T13:12:07.622Z,53.88
2016-12-30T13:13:17.623Z,54.74
2016-12-30T13:14:27.583Z,54.74
2016-12-30T13:15:37.423Z,54.45
2016-12-30T13:16:47.690Z,54.45
2016-12-30T13:17:57.978Z,54.83
2016-12-30T13:19:07.812Z,54.55
2016-12-30T13:20:18.073Z,54.64
2016-12-30T13:21:27.921Z,54.74
2016-12-30T13:22:37.815Z,54.64
2016-12-30T13:23:47.663Z,54.45
2016-12-30T13:24:57.489Z,54.64
2016-12-30T13:26:07.744Z,54.93
2016-12-30T13:27:18.028Z,54.74
2016-12-30T13:28:27.509Z,54.74
2016-12-30T13:29:37.521Z,54.74
2016-12-30T13:30:47.862Z,54.83
2016-12-30T13:31:58.211Z,54.74
2016-12-30T13:33:08.478Z,55.02
2016-12-30T13:34:17.944Z,55.02
2016-12-30T13:35:27.429Z,54.83
2016-12-30T13:36:37.713Z,55.21
2016-12-30T13:37:48.076Z,55.4
2016-12-30T13:38:58.314Z,55.59
2016-12-30T13:40:08.597Z,55.59
2016-12-30T13:41:18.456Z,55.5
2016-12-30T13:42:28.354Z,55.59
2016-12-30T13:44:10.365Z,55.69
2016-12-30T13:45:20.270Z,55.57
2016-12-30T13:46:30.600Z,55.78
2016-12-30T13:47:40.101Z,55.69
2016-12-30T13:48:50.390Z,55.94
2016-12-30T13:50:00.231Z,55.85
2016-12-30T13:51:10.504Z,55.88
2016-12-30T13:52:20.871Z,55.94
2016-12-30T13:53:31.194Z,55.76
2016-12-30T13:54:41.091Z,56.04
2016-12-30T13:55:51.354Z,56.23
2016-12-30T13:57:00.983Z,55.85
2016-12-30T13:58:10.822Z,55.94
2016-12-30T13:59:20.713Z,56.32
2016-12-30T14:00:30.552Z,56.8
2016-12-30T14:01:40.874Z,56.89
2016-12-30T14:02:49.533Z,56.7
2016-12-30T14:03:58.637Z,56.8
2016-12-30T14:05:08.510Z,56.8
2016-12-30T14:06:18.922Z,56.8
2016-12-30T14:07:29.219Z,56.8
2016-12-30T14:08:39.519Z,56.99
2016-12-30T14:09:49.393Z,57.37
2016-12-30T14:10:58.947Z,57.09
2016-12-30T14:12:09.275Z,57.09
2016-12-30T14:13:19.169Z,57.56
2016-12-30T14:14:29.046Z,57.65
2016-12-30T14:15:38.938Z,57.65
2016-12-30T14:16:49.488Z,57.65
2016-12-30T14:17:59.333Z,57.46
2016-12-30T14:19:09.224Z,57.65
2016-12-30T14:20:19.105Z,57.75
2016-12-30T14:21:28.946Z,58.03
2016-12-30T14:22:39.284Z,57.94
2016-12-30T14:23:49.546Z,58.1
2016-12-30T14:24:59.474Z,57.72
2016-12-30T14:26:09.431Z,58.41
2016-12-30T14:27:19.301Z,58.48
2016-12-30T14:28:29.551Z,58.76
2016-12-30T14:29:39.844Z,58.95
2016-12-30T14:30:50.110Z,59.05
2016-12-30T14:32:00.391Z,58.95
2016-12-30T14:33:10.780Z,58.95
2016-12-30T14:34:21.049Z,59.52
2016-12-30T14:35:30.881Z,59.43
2016-12-30T14:36:41.148Z,59.81
2016-12-30T14:37:51.390Z,59.62
2016-12-30T14:39:01.307Z,59.91
2016-12-30T14:40:11.560Z,59.81
2016-12-30T14:41:21.814Z,60.28
2016-12-30T14:42:31.719Z,60.47
2016-12-30T14:43:41.174Z,60.66
2016-12-30T14:44:51.429Z,60.66
2016-12-30T14:46:01.294Z,61.14
2016-12-30T14:47:11.600Z,61.14
2016-12-30T14:48:21.493Z,61.04
2016-12-30T14:49:30.948Z,61.23
2016-12-30T14:50:40.383Z,61.33
2016-12-30T14:51:50.248Z,61.04
2016-12-30T14:52:59.677Z,61.68
2016-12-30T14:54:09.925Z,61.77
2016-12-30T14:55:19.788Z,62.05
2016-12-30T14:56:29.659Z,61.96
2016-12-30T14:57:39.924Z,61.96
2016-12-30T14:58:50.513Z,62.15
2016-12-30T15:00:00.898Z,61.77
2016-12-30T15:01:10.881Z,62.15
2016-12-30T15:02:21.172Z,62.34
2016-12-30T15:03:30.236Z,62.34
2016-12-30T15:04:40.665Z,61.96
2016-12-30T15:05:51.243Z,62.62
2016-12-30T15:07:01.169Z,62.62